Melbourne, Australia
Current Conditions -  °F | °C
As of 7:00 AM on Wednesday 22 Oct 2014 (Local Time) from YMEN Reporting Station
Clear Clear  
Wind Chill: 64°   Ceiling: Unl
Heat Index: 64°   Visibility: 6mi
Dew Point: 52°   Wind: 22mph
Humidity: 64%   Direction: 360°N
Pressure: 30.09"   Gusts: NA
Location:  37.81°S, 144.96°E
Report Text: YMEN 212000Z AUTO 36019KT 9999 // NCD 18/11 Q1019
Loading
Personal Weather Stations






























Interactive Weather Map New forecast layout! Learn more

10-Day Weather Forecast

Advertisements
Track Severe Weather on mobile